Time;durP1;ratioP1;P1;durP2;ratioP2;P2;SDS_P1;SDS_P2;PMS_P1;PMS_P2;Temp;Humidity;BMP_temperature;BMP_pressure;BME280_temperature;BME280_humidity;BME280_pressure;Samples;Min_cycle;Max_cycle;Signal;HPM_P1;HPM_P2
2021/09/25 00:00:47;;;;;;;15.43;13.93;;;17.90;1.00;;;;;;5190051;22;20497;-85
2021/09/25 00:03:13;;;;;;;17.00;15.20;;;18.00;1.00;;;;;;5054988;28;20551;-86
2021/09/25 00:05:42;;;;;;;16.30;14.70;;;18.00;1.00;;;;;;5051295;28;20476;-86
2021/09/25 00:08:09;;;;;;;17.33;15.53;;;18.00;1.00;;;;;;5035959;28;20473;-86
2021/09/25 00:10:39;;;;;;;16.43;14.77;;;18.00;1.00;;;;;;5041555;28;20430;-86
2021/09/25 00:13:06;;;;;;;16.80;15.10;;;18.00;1.00;;;;;;5046006;28;20449;-86
2021/09/25 00:15:35;;;;;;;17.30;15.60;;;18.00;1.00;;;;;;5039182;28;20457;-87
2021/09/25 00:18:03;;;;;;;18.77;15.60;;;18.10;1.00;;;;;;5045244;28;20464;-87
2021/09/25 00:20:30;;;;;;;16.53;14.73;;;18.10;1.00;;;;;;5046381;28;20455;-85
2021/09/25 00:22:58;;;;;;;16.53;14.10;;;18.10;1.00;;;;;;5046549;28;20505;-87
2021/09/25 00:25:25;;;;;;;16.67;14.97;;;18.10;1.00;;;;;;5044055;28;21392;-87
2021/09/25 00:27:52;;;;;;;16.37;14.67;;;18.10;1.00;;;;;;5049526;28;21293;-87
2021/09/25 00:30:19;;;;;;;15.70;14.30;;;18.10;1.00;;;;;;5052636;28;20441;-86
2021/09/25 00:32:46;;;;;;;16.17;14.57;;;18.10;1.00;;;;;;5045781;28;20425;-86
2021/09/25 00:35:17;;;;;;;15.17;13.67;;;18.10;1.00;;;;;;5044466;28;20459;-87
2021/09/25 00:37:44;;;;;;;16.73;15.10;;;18.10;1.00;;;;;;5042185;28;20459;-88
2021/09/25 00:40:15;;;;;;;15.00;13.60;;;18.10;1.00;;;;;;5044519;28;20421;-87
2021/09/25 00:42:55;;;;;;;17.10;15.40;;;18.10;1.00;;;;;;5036796;28;20452;-87
2021/09/25 00:45:22;;;;;;;17.57;15.03;;;18.10;1.00;;;;;;5041455;28;20427;-88
2021/09/25 00:47:49;;;;;;;16.23;14.20;;;18.10;1.00;;;;;;5042198;28;20464;-88
2021/09/25 00:50:17;;;;;;;15.97;14.40;;;18.10;1.00;;;;;;5045877;28;21311;-87
2021/09/25 00:52:43;;;;;;;16.20;14.70;;;18.10;1.00;;;;;;5047710;28;20424;-89
2021/09/25 00:55:13;;;;;;;16.40;14.70;;;18.10;1.00;;;;;;5043501;28;20430;-89
2021/09/25 00:57:41;;;;;;;19.33;15.97;;;18.10;1.00;;;;;;5045657;28;20845;-88
2021/09/25 01:00:10;;;;;;;15.80;14.23;;;18.10;1.00;;;;;;5043677;28;20450;-87
2021/09/25 01:02:36;;;;;;;16.30;14.67;;;18.10;1.00;;;;;;5045653;28;20421;-87
2021/09/25 01:05:05;;;;;;;15.70;14.30;;;18.10;1.00;;;;;;5046697;28;20470;-86
2021/09/25 01:07:32;;;;;;;15.13;13.53;;;18.10;1.00;;;;;;5042667;28;20424;-86
2021/09/25 01:09:58;;;;;;;15.37;13.77;;;18.10;1.00;;;;;;5045446;28;20572;-86
2021/09/25 01:12:29;;;;;;;16.17;14.53;;;18.10;1.00;;;;;;5048665;28;20454;-87
2021/09/25 01:14:55;;;;;;;15.57;14.10;;;18.10;1.00;;;;;;5048204;28;20517;-86
2021/09/25 01:17:22;;;;;;;14.87;13.47;;;18.20;1.00;;;;;;5044331;28;20561;-88
2021/09/25 01:19:49;;;;;;;14.17;12.77;;;18.10;1.00;;;;;;5049211;28;20405;-87
2021/09/25 01:22:17;;;;;;;15.50;14.00;;;18.10;1.00;;;;;;5043514;28;21017;-86
2021/09/25 01:24:44;;;;;;;16.80;15.20;;;18.10;1.00;;;;;;5045262;28;20515;-86
2021/09/25 01:27:11;;;;;;;14.90;13.40;;;18.10;1.00;;;;;;5047799;28;20406;-86
2021/09/25 01:29:38;;;;;;;16.17;14.47;;;18.10;1.00;;;;;;5047238;28;20429;-86
2021/09/25 01:32:06;;;;;;;14.80;13.40;;;18.10;1.00;;;;;;5053700;28;20500;-87
2021/09/25 01:34:34;;;;;;;16.60;15.00;;;18.10;1.00;;;;;;5055537;28;20464;-86
2021/09/25 01:37:01;;;;;;;15.77;14.37;;;18.10;1.00;;;;;;5054076;28;20428;-87
2021/09/25 01:39:30;;;;;;;16.07;14.47;;;18.10;1.00;;;;;;5054985;28;20418;-88
2021/09/25 01:41:57;;;;;;;14.97;13.30;;;18.20;1.00;;;;;;5055331;28;20413;-86
2021/09/25 01:44:26;;;;;;;15.40;13.90;;;18.10;1.00;;;;;;5051610;28;20425;-86
2021/09/25 01:46:53;;;;;;;16.23;14.43;;;18.20;1.00;;;;;;5052690;28;20416;-85
2021/09/25 01:49:20;;;;;;;15.53;14.03;;;18.20;1.00;;;;;;5056034;28;20978;-86
2021/09/25 01:51:49;;;;;;;16.17;14.50;;;18.10;1.00;;;;;;5055424;28;20406;-87
2021/09/25 01:54:18;;;;;;;16.17;14.70;;;18.10;1.00;;;;;;5053947;28;20430;-87
2021/09/25 01:56:46;;;;;;;16.10;14.40;;;18.10;1.00;;;;;;5055632;28;20402;-87
2021/09/25 01:59:13;;;;;;;17.17;15.57;;;18.10;1.00;;;;;;5054665;28;20448;-87
2021/09/25 02:01:41;;;;;;;15.80;14.10;;;18.10;1.00;;;;;;5054739;28;20404;-87
2021/09/25 02:04:08;;;;;;;17.47;15.13;;;18.10;1.00;;;;;;5056292;28;20449;-87
2021/09/25 02:06:34;;;;;;;17.20;15.40;;;18.10;1.00;;;;;;5048798;28;20564;-87
2021/09/25 02:09:01;;;;;;;15.73;14.10;;;18.10;1.00;;;;;;5055113;28;20393;-86
2021/09/25 02:11:28;;;;;;;16.83;14.80;;;18.10;1.00;;;;;;5051766;28;20436;-85
2021/09/25 02:14:04;;;;;;;16.10;14.50;;;18.10;1.00;;;;;;5052236;28;20429;-87
2021/09/25 02:16:31;;;;;;;16.47;14.97;;;18.10;1.00;;;;;;5053748;28;20395;-86
2021/09/25 02:18:57;;;;;;;15.93;14.40;;;18.10;1.00;;;;;;5053030;28;20413;-86
2021/09/25 02:21:24;;;;;;;15.87;14.40;;;18.20;1.00;;;;;;5049623;28;20398;-86
2021/09/25 02:23:51;;;;;;;16.77;15.07;;;18.20;1.00;;;;;;5048608;28;20488;-86
2021/09/25 02:26:17;;;;;;;17.80;15.90;;;18.20;1.00;;;;;;5047229;28;20428;-86
2021/09/25 02:28:44;;;;;;;17.10;14.77;;;18.20;1.00;;;;;;5047924;28;20429;-85
2021/09/25 02:31:13;;;;;;;15.70;14.07;;;18.20;1.00;;;;;;5052435;28;20424;-86
2021/09/25 02:33:40;;;;;;;16.90;15.20;;;18.20;1.00;;;;;;5052273;28;20460;-85
2021/09/25 02:36:06;;;;;;;15.63;14.23;;;18.20;1.00;;;;;;5054844;28;20420;-85
2021/09/25 02:38:33;;;;;;;15.70;14.17;;;18.20;1.00;;;;;;5055160;28;20543;-86
2021/09/25 02:41:00;;;;;;;14.90;13.40;;;18.20;1.00;;;;;;5052789;28;20441;-86
2021/09/25 02:43:26;;;;;;;15.83;14.40;;;18.20;1.00;;;;;;5051949;28;20563;-85
2021/09/25 02:45:53;;;;;;;15.13;13.73;;;18.20;1.00;;;;;;5047813;28;20929;-85
2021/09/25 02:48:21;;;;;;;14.20;12.83;;;18.20;1.00;;;;;;5045102;28;20401;-85
2021/09/25 02:50:50;;;;;;;15.83;14.33;;;18.20;1.00;;;;;;5045037;28;20438;-84
2021/09/25 02:53:17;;;;;;;16.00;14.47;;;18.20;1.00;;;;;;5038791;28;20394;-85
2021/09/25 02:55:44;;;;;;;15.93;14.30;;;18.10;1.00;;;;;;5042801;28;20464;-83
2021/09/25 02:58:10;;;;;;;15.40;13.80;;;18.10;1.00;;;;;;5037628;28;20465;-85
2021/09/25 03:00:37;;;;;;;14.03;12.73;;;18.10;1.00;;;;;;5031619;28;20449;-86
2021/09/25 03:03:04;;;;;;;15.17;13.57;;;18.10;1.00;;;;;;5036622;28;20523;-85
2021/09/25 03:05:33;;;;;;;14.40;13.10;;;18.10;1.00;;;;;;5036978;28;20418;-85
2021/09/25 03:07:59;;;;;;;14.80;13.50;;;18.10;1.00;;;;;;5032970;28;20436;-86
2021/09/25 03:10:26;;;;;;;15.07;13.67;;;18.10;1.00;;;;;;5036991;28;20484;-86
2021/09/25 03:12:53;;;;;;;14.37;12.97;;;18.10;1.00;;;;;;5033833;28;21352;-86
2021/09/25 03:15:21;;;;;;;14.90;13.30;;;18.10;1.00;;;;;;5032236;28;20456;-86
2021/09/25 03:17:48;;;;;;;14.33;12.73;;;18.10;1.00;;;;;;5034459;28;20520;-86
2021/09/25 03:20:15;;;;;;;15.67;14.00;;;18.10;1.00;;;;;;5033989;28;20418;-86
2021/09/25 03:22:43;;;;;;;15.20;13.60;;;18.00;1.00;;;;;;5036538;28;20487;-85
2021/09/25 03:25:10;;;;;;;15.20;13.60;;;18.00;1.00;;;;;;5030861;28;20473;-84
2021/09/25 03:27:38;;;;;;;16.27;14.00;;;18.00;1.00;;;;;;5025334;28;21852;-84
2021/09/25 03:30:07;;;;;;;14.20;12.80;;;18.00;1.00;;;;;;5034924;28;20424;-84
2021/09/25 03:32:34;;;;;;;14.40;12.90;;;18.00;1.00;;;;;;5026986;28;20487;-83
2021/09/25 03:35:01;;;;;;;13.50;12.10;;;18.10;1.00;;;;;;5023978;28;20450;-83
2021/09/25 03:37:28;;;;;;;14.30;13.00;;;18.10;1.00;;;;;;5021550;28;20452;-85
2021/09/25 03:39:56;;;;;;;14.70;13.17;;;18.10;1.00;;;;;;5021018;28;20441;-85
2021/09/25 03:42:23;;;;;;;14.30;12.90;;;18.10;1.00;;;;;;5021874;28;20489;-85
2021/09/25 03:44:49;;;;;;;14.90;13.50;;;18.10;1.00;;;;;;5020267;28;20453;-85
2021/09/25 03:47:16;;;;;;;13.97;12.67;;;18.10;1.00;;;;;;5016496;28;20452;-85
2021/09/25 03:49:43;;;;;;;16.03;12.80;;;18.10;1.00;;;;;;5023508;28;20547;-87
2021/09/25 03:52:10;;;;;;;14.43;12.93;;;18.20;1.00;;;;;;5022561;28;20465;-86
2021/09/25 03:54:36;;;;;;;14.33;12.40;;;18.10;1.00;;;;;;5021796;28;20533;-87
2021/09/25 03:57:05;;;;;;;15.67;13.20;;;18.10;1.00;;;;;;5019299;28;20437;-86
2021/09/25 03:59:32;;;;;;;15.27;13.60;;;18.10;1.00;;;;;;5018182;28;20474;-87
2021/09/25 04:01:59;;;;;;;13.90;12.60;;;18.10;1.00;;;;;;5017267;28;20469;-85
2021/09/25 04:04:27;;;;;;;15.23;13.73;;;18.10;1.00;;;;;;5017095;28;20713;-84
2021/09/25 04:06:54;;;;;;;13.67;12.47;;;18.10;1.00;;;;;;5020367;28;20480;-85
2021/09/25 04:09:21;;;;;;;14.60;13.20;;;18.10;1.00;;;;;;5018372;28;20452;-85
2021/09/25 04:11:49;;;;;;;13.13;11.80;;;18.10;1.00;;;;;;5016542;28;20501;-85
2021/09/25 04:14:19;;;;;;;15.30;13.80;;;18.10;1.00;;;;;;5014639;28;20469;-86
2021/09/25 04:16:46;;;;;;;14.63;13.03;;;18.10;1.00;;;;;;5016786;28;21452;-84
2021/09/25 04:19:13;;;;;;;14.20;12.90;;;18.00;1.00;;;;;;5016156;28;23594;-86
2021/09/25 04:21:40;;;;;;;14.97;13.47;;;17.90;1.00;;;;;;5013875;28;20473;-85
2021/09/25 04:24:06;;;;;;;16.90;13.83;;;17.90;1.00;;;;;;5013508;28;20424;-85
2021/09/25 04:26:34;;;;;;;15.23;13.73;;;17.80;1.00;;;;;;5019333;28;20449;-84
2021/09/25 04:29:01;;;;;;;18.37;15.73;;;17.70;1.00;;;;;;5015810;28;20434;-84
2021/09/25 04:31:29;;;;;;;17.50;15.80;;;17.60;1.00;;;;;;5020266;28;20590;-84
2021/09/25 04:33:56;;;;;;;18.07;16.20;;;17.50;1.00;;;;;;5016390;28;21305;-85
2021/09/25 04:36:23;;;;;;;17.30;15.63;;;17.30;1.00;;;;;;5019337;28;20507;-84
2021/09/25 04:38:49;;;;;;;19.63;17.57;;;17.30;1.00;;;;;;5015624;28;20566;-84
2021/09/25 04:41:16;;;;;;;20.03;17.93;;;17.10;1.00;;;;;;5017210;28;20452;-85
2021/09/25 04:43:43;;;;;;;19.00;17.00;;;17.00;1.00;;;;;;5023586;28;20417;-84
2021/09/25 04:46:10;;;;;;;20.10;18.00;;;16.90;1.00;;;;;;5030594;28;20429;-85
2021/09/25 04:48:48;;;;;;;19.70;17.70;;;16.80;1.00;;;;;;5045588;28;20408;-86
2021/09/25 04:51:15;;;;;;;21.97;19.60;;;16.70;1.00;;;;;;5038811;28;20464;-88
2021/09/25 04:53:42;;;;;;;20.50;18.23;;;16.70;1.00;;;;;;5038514;28;20425;-89
2021/09/25 04:56:09;;;;;;;21.17;19.03;;;16.60;1.00;;;;;;5031918;28;24384;-87
2021/09/25 04:58:37;;;;;;;21.87;19.57;;;16.60;1.00;;;;;;5033651;28;20483;-87
2021/09/25 05:01:05;;;;;;;21.53;19.30;;;16.60;1.00;;;;;;5033089;28;20521;-88
2021/09/25 05:03:33;;;;;;;20.00;18.00;;;16.60;1.00;;;;;;5018903;28;20448;-86
2021/09/25 05:06:02;;;;;;;19.77;17.80;;;16.60;1.00;;;;;;5015222;28;20428;-86
2021/09/25 05:08:29;;;;;;;24.43;19.43;;;16.60;1.00;;;;;;5015837;28;20465;-85
2021/09/25 05:10:55;;;;;;;20.80;18.60;;;16.50;1.00;;;;;;5014512;28;20444;-86
2021/09/25 05:13:22;;;;;;;22.53;20.17;;;16.50;1.00;;;;;;5014304;28;20475;-87
2021/09/25 05:15:49;;;;;;;21.17;18.57;;;16.50;1.00;;;;;;5017621;28;20472;-85
2021/09/25 05:18:16;;;;;;;19.67;17.70;;;16.40;1.00;;;;;;5018867;28;20602;-85
2021/09/25 05:20:43;;;;;;;19.53;17.53;;;16.50;1.00;;;;;;5017147;28;20542;-85
2021/09/25 05:23:11;;;;;;;21.47;18.10;;;16.40;1.00;;;;;;5020329;28;20491;-86
2021/09/25 05:25:38;;;;;;;20.67;18.57;;;16.40;1.00;;;;;;5016453;28;20477;-86
2021/09/25 05:28:05;;;;;;;21.87;18.80;;;16.40;1.00;;;;;;5022610;28;20425;-86
2021/09/25 05:30:32;;;;;;;20.77;18.77;;;16.40;1.00;;;;;;5022501;28;20463;-85
2021/09/25 05:32:59;;;;;;;19.83;17.87;;;16.50;1.00;;;;;;5028569;28;20458;-86
2021/09/25 05:35:26;;;;;;;19.27;17.37;;;16.40;1.00;;;;;;5014110;28;20459;-87
2021/09/25 05:37:53;;;;;;;21.50;19.20;;;16.50;1.00;;;;;;5014893;28;20468;-86
2021/09/25 05:40:22;;;;;;;19.30;17.40;;;16.50;1.00;;;;;;5016259;28;20550;-85
2021/09/25 05:42:48;;;;;;;18.90;17.10;;;16.60;1.00;;;;;;5012650;28;20524;-87
2021/09/25 05:45:16;;;;;;;19.77;17.47;;;16.60;1.00;;;;;;5014097;28;21259;-86
2021/09/25 05:47:43;;;;;;;18.47;16.57;;;16.60;1.00;;;;;;5014469;28;20460;-85
2021/09/25 05:50:10;;;;;;;18.27;16.40;;;16.70;1.00;;;;;;5018030;28;20570;-87
2021/09/25 05:52:38;;;;;;;17.57;15.80;;;16.70;1.00;;;;;;5020598;28;20446;-88
2021/09/25 05:55:06;;;;;;;19.50;16.20;;;16.80;1.00;;;;;;5015201;28;20448;-86
2021/09/25 05:57:35;;;;;;;17.63;15.67;;;16.80;1.00;;;;;;5020260;28;20458;-87
2021/09/25 06:00:02;;;;;;;16.77;14.57;;;16.90;1.00;;;;;;5017640;28;20464;-85
2021/09/25 06:02:29;;;;;;;18.83;15.80;;;17.00;1.00;;;;;;5017425;28;20450;-87
2021/09/25 06:04:55;;;;;;;17.80;15.83;;;17.00;1.00;;;;;;5015344;28;20461;-87
2021/09/25 06:07:22;;;;;;;16.90;15.13;;;17.10;1.00;;;;;;5015769;28;20536;-86
2021/09/25 06:09:49;;;;;;;17.43;14.03;;;17.10;1.00;;;;;;5017718;28;21840;-85
2021/09/25 06:12:16;;;;;;;16.83;15.23;;;17.20;1.00;;;;;;5018364;28;20452;-84
2021/09/25 06:14:45;;;;;;;15.70;14.10;;;17.20;1.00;;;;;;5019975;28;20560;-86
2021/09/25 06:17:12;;;;;;;16.63;14.80;;;17.20;1.00;;;;;;5019117;28;20418;-86
2021/09/25 06:19:39;;;;;;;20.90;16.33;;;17.30;1.00;;;;;;5019981;28;21616;-85
2021/09/25 06:22:05;;;;;;;17.70;14.83;;;17.40;1.00;;;;;;5020770;28;20433;-85
2021/09/25 06:24:32;;;;;;;15.20;13.80;;;17.40;1.00;;;;;;5024593;28;20583;-85
2021/09/25 06:27:00;;;;;;;14.47;12.47;;;17.40;1.00;;;;;;5027230;28;20476;-86
2021/09/25 06:29:27;;;;;;;15.60;13.57;;;17.50;1.00;;;;;;5033475;28;20480;-85
2021/09/25 06:31:55;;;;;;;15.70;14.00;;;17.60;1.00;;;;;;5023506;28;20529;-86
2021/09/25 06:34:23;;;;;;;15.57;13.97;;;17.60;1.00;;;;;;5022965;28;21345;-86
2021/09/25 06:36:50;;;;;;;15.00;13.40;;;17.70;1.00;;;;;;5020051;28;20659;-86
2021/09/25 06:39:17;;;;;;;15.10;13.60;;;17.80;1.00;;;;;;5022332;28;20727;-86
2021/09/25 06:41:44;;;;;;;14.30;12.97;;;17.90;1.00;;;;;;5020941;28;20524;-86
2021/09/25 06:44:11;;;;;;;15.20;13.73;;;17.90;1.00;;;;;;5024235;28;20416;-86
2021/09/25 06:46:38;;;;;;;12.77;11.57;;;18.00;1.00;;;;;;5018938;28;20480;-86
2021/09/25 06:49:07;;;;;;;21.40;15.53;;;18.10;1.00;;;;;;5022507;28;20871;-86
2021/09/25 06:51:35;;;;;;;15.87;14.27;;;18.10;1.00;;;;;;5020707;28;20464;-86
2021/09/25 06:54:02;;;;;;;15.50;13.90;;;18.10;1.00;;;;;;5020171;28;21350;-86
2021/09/25 06:56:29;;;;;;;17.40;15.30;;;18.00;1.00;;;;;;5025185;28;20470;-86
2021/09/25 06:58:56;;;;;;;15.30;13.90;;;18.00;1.00;;;;;;5023128;28;20472;-86
2021/09/25 07:01:23;;;;;;;14.57;13.07;;;18.00;1.00;;;;;;5021630;28;21384;-86
2021/09/25 07:03:53;;;;;;;15.53;13.93;;;18.10;1.00;;;;;;5023538;28;20552;-86
2021/09/25 07:06:21;;;;;;;15.23;13.23;;;18.10;1.00;;;;;;5022737;28;21137;-86
2021/09/25 07:08:48;;;;;;;14.67;12.97;;;18.20;1.00;;;;;;5023232;28;20430;-86
2021/09/25 07:11:16;;;;;;;15.97;14.10;;;18.20;1.00;;;;;;5025827;28;20488;-88
2021/09/25 07:13:43;;;;;;;15.10;13.70;;;18.20;1.00;;;;;;5023987;28;20417;-87
2021/09/25 07:16:11;;;;;;;15.47;14.00;;;18.10;1.00;;;;;;5022166;28;20464;-89
2021/09/25 07:18:41;;;;;;;16.37;14.37;;;18.10;1.00;;;;;;5025552;28;21713;-87
2021/09/25 07:21:09;;;;;;;15.90;14.20;;;18.10;1.00;;;;;;5036481;28;20476;-87
2021/09/25 07:23:45;;;;;;;16.43;14.10;;;18.20;1.00;;;;;;5024843;28;20445;-87
2021/09/25 07:26:13;;;;;;;15.37;13.93;;;18.30;1.00;;;;;;5024736;28;21257;-88
2021/09/25 07:28:52;;;;;;;17.10;15.30;;;18.40;1.00;;;;;;5023028;28;21295;-85
2021/09/25 07:31:21;;;;;;;16.07;14.50;;;18.60;1.00;;;;;;5025930;28;20464;-86
2021/09/25 07:33:56;;;;;;;15.60;13.93;;;18.70;1.00;;;;;;5046432;28;20437;-87
2021/09/25 07:36:38;;;;;;;15.23;13.63;;;18.80;1.00;;;;;;5069208;28;20462;-85
2021/09/25 07:39:09;;;;;;;15.70;14.10;;;18.90;1.00;;;;;;5064550;28;20435;-87
2021/09/25 07:41:37;;;;;;;14.90;13.23;;;19.00;1.00;;;;;;5044848;28;20526;-87
2021/09/25 07:44:06;;;;;;;14.60;13.30;;;19.20;1.00;;;;;;5058544;28;20470;-87
2021/09/25 07:46:36;;;;;;;15.00;13.40;;;19.40;1.00;;;;;;5058464;28;20851;-87
2021/09/25 07:49:07;;;;;;;14.90;13.27;;;19.60;1.00;;;;;;5039300;28;20465;-86
2021/09/25 07:51:42;;;;;;;15.50;14.00;;;19.70;1.00;;;;;;5058328;28;20461;-86
2021/09/25 07:54:21;;;;;;;16.27;14.57;;;19.80;1.00;;;;;;5052852;28;20463;-88
2021/09/25 07:56:48;;;;;;;14.77;13.27;;;19.80;1.00;;;;;;5064288;28;24666;-85
2021/09/25 07:59:15;;;;;;;15.07;13.47;;;19.70;1.00;;;;;;5063629;28;20969;-85
2021/09/25 08:01:42;;;;;;;14.50;12.87;;;19.60;1.00;;;;;;5043132;28;20448;-85
2021/09/25 08:04:09;;;;;;;15.30;13.90;;;19.40;1.00;;;;;;5064317;28;20493;-85
2021/09/25 08:06:45;;;;;;;14.77;13.37;;;19.30;1.00;;;;;;5068918;28;20468;-85
2021/09/25 08:09:16;;;;;;;14.30;12.90;;;19.30;1.00;;;;;;5062088;28;21589;-86
2021/09/25 08:11:43;;;;;;;13.30;12.10;;;19.30;1.00;;;;;;5078833;28;20423;-86
2021/09/25 08:14:11;;;;;;;14.47;13.17;;;19.40;1.00;;;;;;5089689;28;20456;-86
2021/09/25 08:16:38;;;;;;;15.97;14.40;;;19.40;1.00;;;;;;5088690;28;20388;-88
2021/09/25 08:19:05;;;;;;;15.37;13.80;;;19.30;1.00;;;;;;5086876;28;20648;-87
2021/09/25 08:21:32;;;;;;;16.20;14.60;;;19.30;1.00;;;;;;5081782;28;20957;-87
2021/09/25 08:24:00;;;;;;;16.20;14.70;;;19.40;1.00;;;;;;5083390;28;20532;-87
2021/09/25 08:26:40;;;;;;;16.27;14.77;;;19.50;1.00;;;;;;5068763;28;20433;-82
2021/09/25 08:29:07;;;;;;;15.03;13.73;;;19.60;1.00;;;;;;5042868;28;20550;-81
2021/09/25 08:31:35;;;;;;;15.23;13.87;;;19.60;1.00;;;;;;5058367;28;20422;-80
2021/09/25 08:34:03;;;;;;;16.20;14.47;;;19.50;1.00;;;;;;5044206;28;21283;-78
2021/09/25 08:36:37;;;;;;;15.90;14.43;;;19.50;1.00;;;;;;5058425;28;20439;-78
2021/09/25 08:39:22;;;;;;;16.07;14.57;;;19.60;1.00;;;;;;5048474;28;20471;-77
2021/09/25 08:42:29;;;;;;;16.20;14.70;;;19.60;1.00;;;;;;5051695;28;20451;-79
2021/09/25 08:45:07;;;;;;;17.00;15.50;;;19.60;1.00;;;;;;5030516;28;20470;-78
2021/09/25 08:47:53;;;;;;;17.73;16.27;;;19.70;1.00;;;;;;5033795;28;20474;-79
2021/09/25 08:50:35;;;;;;;15.43;14.10;;;19.70;1.00;;;;;;5052511;28;20469;-78
2021/09/25 08:53:25;;;;;;;16.20;14.60;;;19.70;1.00;;;;;;5032377;28;20451;-80
2021/09/25 08:55:55;;;;;;;15.13;13.67;;;19.70;1.00;;;;;;5055850;28;20448;-80
2021/09/25 08:58:44;;;;;;;16.83;15.23;;;19.60;1.00;;;;;;5047114;28;20418;-79
2021/09/25 09:01:44;;;;;;;15.60;14.10;;;19.50;1.00;;;;;;5047818;28;20471;-79
2021/09/25 09:04:39;;;;;;;14.97;13.60;;;19.30;1.00;;;;;;5056026;28;20459;-80
2021/09/25 09:07:24;;;;;;;21.13;16.50;;;19.30;1.00;;;;;;5055876;28;20573;-80
2021/09/25 09:10:01;;;;;;;20.07;17.90;;;19.30;1.00;;;;;;5054752;28;21122;-80
2021/09/25 09:12:41;;;;;;;19.77;17.77;;;19.30;1.00;;;;;;5042412;28;20463;-80
2021/09/25 09:15:30;;;;;;;19.80;17.80;;;19.30;1.00;;;;;;5052483;28;20639;-79
2021/09/25 09:18:09;;;;;;;18.83;17.03;;;19.30;1.00;;;;;;5058042;28;20483;-81
2021/09/25 09:20:38;;;;;;;19.40;17.30;;;19.40;1.00;;;;;;5054815;28;22826;-80
2021/09/25 09:23:14;;;;;;;16.57;14.97;;;19.60;1.00;;;;;;5036534;28;20471;-81
2021/09/25 09:25:50;;;;;;;16.83;15.03;;;19.80;1.00;;;;;;5062126;28;20428;-80
2021/09/25 09:31:40;;;;;;;17.40;15.80;;;20.00;1.00;;;;;;5065006;28;20510;-81
2021/09/25 09:34:16;;;;;;;16.63;15.13;;;20.10;1.00;;;;;;5036463;28;21353;-80
2021/09/25 09:36:50;;;;;;;17.93;16.43;;;20.00;1.00;;;;;;5049147;28;20765;-78
2021/09/25 09:39:35;;;;;;;17.37;15.87;;;20.00;1.00;;;;;;5036245;28;20442;-79
2021/09/25 09:42:07;;;;;;;16.23;14.70;;;19.90;1.00;;;;;;5052292;28;20444;-79
2021/09/25 09:44:38;;;;;;;17.00;15.50;;;20.00;1.00;;;;;;5031159;28;20967;-79
2021/09/25 09:47:25;;;;;;;16.53;15.13;;;20.00;1.00;;;;;;5049940;28;20520;-80
2021/09/25 09:50:05;;;;;;;16.43;15.00;;;19.90;1.00;;;;;;5055878;28;20429;-80
2021/09/25 09:52:47;;;;;;;18.87;17.17;;;19.70;1.00;;;;;;5047510;28;20454;-80
2021/09/25 09:55:25;;;;;;;18.93;17.23;;;19.50;1.00;;;;;;5051903;28;20429;-81
2021/09/25 09:58:10;;;;;;;19.20;17.20;;;19.50;1.00;;;;;;5049428;28;21664;-80
2021/09/25 10:00:48;;;;;;;20.40;18.50;;;19.60;1.00;;;;;;5052995;28;20438;-81
2021/09/25 10:03:25;;;;;;;21.23;19.47;;;19.40;1.00;;;;;;5035838;28;20502;-79
2021/09/25 10:06:03;;;;;;;22.70;20.50;;;19.20;1.00;;;;;;5041192;28;21943;-79
2021/09/25 10:08:36;;;;;;;22.70;20.70;;;19.10;1.00;;;;;;5054213;28;20480;-78
2021/09/25 10:11:35;;;;;;;23.23;21.23;;;19.00;1.00;;;;;;5038072;28;20964;-78
2021/09/25 10:14:23;;;;;;;26.30;23.80;;;18.90;1.00;;;;;;5039191;28;20546;-79
2021/09/25 10:17:16;;;;;;;24.80;22.70;;;19.00;1.00;;;;;;5054264;28;20475;-79
2021/09/25 10:20:17;;;;;;;25.60;23.20;;;19.00;1.00;;;;;;5034028;28;20469;-79
2021/09/25 10:26:12;;;;;;;27.33;24.93;;;18.90;1.00;;;;;;5050180;28;20470;-80
2021/09/25 10:28:53;;;;;;;26.33;24.03;;;18.90;1.00;;;;;;5041699;28;20440;-81
2021/09/25 10:31:24;;;;;;;27.70;25.20;;;18.80;1.00;;;;;;5056865;28;20438;-82
2021/09/25 10:34:26;;;;;;;25.53;23.23;;;18.80;1.00;;;;;;5058992;28;20447;-85
2021/09/25 10:37:05;;;;;;;28.80;26.27;;;18.90;1.00;;;;;;5062266;28;20583;-82
2021/09/25 10:39:50;;;;;;;30.27;27.30;;;19.00;1.00;;;;;;5057007;28;20493;-79
2021/09/25 10:43:00;;;;;;;29.40;26.77;;;19.00;1.00;;;;;;5054677;28;20439;-82
2021/09/25 10:48:56;;;;;;;27.00;24.67;;;19.30;1.00;;;;;;5022698;28;20474;-81
2021/09/25 10:51:54;;;;;;;24.10;21.90;;;19.40;1.00;;;;;;5044234;28;20802;-82
2021/09/25 10:54:22;;;;;;;22.63;20.63;;;19.60;1.00;;;;;;5037878;28;21009;-80
2021/09/25 10:57:02;;;;;;;22.30;20.30;;;20.00;1.00;;;;;;5052928;28;20473;-81
2021/09/25 10:59:37;;;;;;;23.33;21.20;;;20.60;1.00;;;;;;5033160;28;20501;-84
2021/09/25 11:02:33;;;;;;;21.93;19.83;;;21.30;1.00;;;;;;5054435;28;20471;-82
2021/09/25 11:05:10;;;;;;;20.77;19.07;;;21.90;1.00;;;;;;5042202;28;20482;-81
2021/09/25 11:07:49;;;;;;;19.60;17.87;;;22.30;1.00;;;;;;5029790;28;20525;-81
2021/09/25 11:10:37;;;;;;;20.70;18.73;;;22.40;1.00;;;;;;5029521;28;20435;-82
2021/09/25 11:13:09;;;;;;;18.67;17.17;;;22.50;1.00;;;;;;5058348;28;20462;-84
2021/09/25 11:15:48;;;;;;;18.60;17.03;;;22.70;1.00;;;;;;5039135;28;20592;-81
2021/09/25 11:18:51;;;;;;;16.53;15.13;;;22.90;1.00;;;;;;5042004;28;20453;-82
2021/09/25 11:21:40;;;;;;;16.17;14.93;;;23.00;1.00;;;;;;5032196;28;20459;-81
2021/09/25 11:24:53;;;;;;;16.50;15.20;;;22.90;1.00;;;;;;5044300;28;20458;-78
2021/09/25 11:27:42;;;;;;;16.17;14.80;;;22.50;1.00;;;;;;5136387;22;20486;-80
2021/09/25 11:30:33;;;;;;;16.20;14.93;;;22.10;1.00;;;;;;5091445;27;20499;-81
2021/09/25 11:33:18;;;;;;;16.00;14.60;;;22.00;1.00;;;;;;5097048;27;20474;-80
2021/09/25 11:36:00;;;;;;;14.30;13.30;;;22.50;1.00;;;;;;5095748;27;20456;-79
2021/09/25 11:38:51;;;;;;;14.07;12.70;;;22.90;1.00;;;;;;5065366;28;20441;-82
2021/09/25 11:41:30;;;;;;;12.20;11.20;;;23.10;1.00;;;;;;5068653;28;20850;-79
2021/09/25 11:44:14;;;;;;;13.63;12.47;;;23.10;1.00;;;;;;5073643;28;20444;-80
2021/09/25 11:50:06;;;;;;;10.73;9.93;;;22.80;1.00;;;;;;5077441;28;20526;-79
2021/09/25 11:52:50;;;;;;;11.67;10.87;;;22.40;1.00;;;;;;5073079;28;20440;-79
2021/09/25 11:58:29;;;;;;;10.67;9.73;;;22.50;1.00;;;;;;5092949;27;20462;-79
2021/09/25 12:01:14;;;;;;;10.07;9.27;;;22.70;1.00;;;;;;5072670;28;20448;-79
2021/09/25 12:03:51;;;;;;;10.77;9.97;;;22.60;1.00;;;;;;5079459;28;21064;-80
2021/09/25 12:06:32;;;;;;;10.23;9.43;;;22.70;1.00;;;;;;5073951;27;20577;-80
2021/09/25 12:09:02;;;;;;;13.90;12.90;;;22.90;1.00;;;;;;5094774;27;20464;-78
2021/09/25 12:11:50;;;;;;;10.63;9.70;;;23.00;1.00;;;;;;5093622;27;20456;-78
2021/09/25 12:14:35;;;;;;;10.20;9.30;;;23.20;1.00;;;;;;5068156;28;20465;-80
2021/09/25 12:17:11;;;;;;;9.60;8.90;;;23.10;1.00;;;;;;5091596;27;20565;-80
2021/09/25 12:19:53;;;;;;;9.93;9.13;;;22.80;1.00;;;;;;5089315;27;20447;-79
2021/09/25 12:22:29;;;;;;;10.27;9.30;;;22.60;1.00;;;;;;5085376;28;20443;-79
2021/09/25 12:25:02;;;;;;;10.40;9.57;;;22.50;1.00;;;;;;5088777;27;20498;-80
2021/09/25 12:27:34;;;;;;;11.13;10.23;;;22.40;1.00;;;;;;5097656;27;20455;-79
2021/09/25 12:30:22;;;;;;;10.70;9.70;;;22.60;1.00;;;;;;5102385;27;20464;-79
2021/09/25 12:33:02;;;;;;;8.93;8.17;;;22.80;1.00;;;;;;5080908;28;20410;-79
2021/09/25 12:35:29;;;;;;;7.70;7.00;;;25.30;1.00;;;;;;5081490;28;20633;-80
2021/09/25 12:37:59;;;;;;;8.03;7.23;;;27.60;1.00;;;;;;5074034;27;20933;-80
2021/09/25 12:40:30;;;;;;;7.77;7.20;;;28.00;1.00;;;;;;5092249;28;20449;-80
2021/09/25 12:46:48;;;;;;;8.10;7.40;;;26.50;1.00;;;;;;5080097;27;21225;-80
2021/09/25 12:49:34;;;;;;;8.30;7.70;;;25.40;1.00;;;;;;5086388;28;20455;-79
2021/09/25 12:52:17;;;;;;;8.90;8.00;;;24.40;1.00;;;;;;5084022;27;20431;-79
2021/09/25 12:55:06;;;;;;;8.33;7.73;;;23.70;1.00;;;;;;5086242;27;20518;-79
2021/09/25 12:57:56;;;;;;;9.67;8.77;;;23.20;1.00;;;;;;5087387;27;20460;-79
2021/09/25 13:04:38;;;;;;;9.83;9.00;;;22.80;1.00;;;;;;5084627;27;20475;-78
2021/09/25 13:07:26;;;;;;;8.70;8.10;;;22.80;1.00;;;;;;5087345;27;20455;-79
2021/09/25 13:11:00;;;;;;;;;;;;;;;;;;;;;
2021/09/25 13:17:24;;;;;;;9.47;8.57;;;22.50;1.00;;;;;;4990109;28;20695;-79
2021/09/25 13:20:16;;;;;;;10.10;9.30;;;22.40;1.00;;;;;;5082469;28;20449;-78
2021/09/25 13:23:11;;;;;;;10.30;9.50;;;22.30;1.00;;;;;;5059113;28;20439;-78
2021/09/25 13:25:59;;;;;;;10.33;9.53;;;22.30;1.00;;;;;;5084064;28;20467;-78
2021/09/25 13:28:36;;;;;;;10.40;9.50;;;22.30;1.00;;;;;;5084835;27;20464;-78
2021/09/25 13:31:26;;;;;;;10.30;9.30;;;22.40;1.00;;;;;;5067692;28;20488;-79
2021/09/25 13:34:08;;;;;;;10.87;9.83;;;22.50;1.00;;;;;;5065173;28;20440;-80
2021/09/25 13:36:44;;;;;;;11.33;10.20;;;22.80;1.00;;;;;;5084451;27;21641;-79